Time;durP1;ratioP1;P1;durP2;ratioP2;P2;SDS_P1;SDS_P2;PMS_P1;PMS_P2;Temp;Humidity;BMP_temperature;BMP_pressure;BME280_temperature;BME280_humidity;BME280_pressure;Samples;Min_cycle;Max_cycle;Signal;HPM_P1;HPM_P2
2021/10/26 00:01:02;;;;;;;15.05;9.35;;;5.10;99.90;;;;;;5053067;28;20029;-61
2021/10/26 00:03:28;;;;;;;14.88;9.75;;;5.10;99.90;;;;;;5053014;28;20047;-61
2021/10/26 00:05:54;;;;;;;14.85;10.05;;;5.10;99.90;;;;;;5052517;28;20448;-61
2021/10/26 00:08:20;;;;;;;14.30;9.05;;;5.10;99.90;;;;;;5053037;28;20131;-60
2021/10/26 00:10:45;;;;;;;13.60;8.70;;;5.10;99.90;;;;;;5053500;28;20091;-61
2021/10/26 00:13:11;;;;;;;15.32;8.88;;;5.10;99.90;;;;;;5052713;28;20040;-60
2021/10/26 00:15:38;;;;;;;13.77;9.20;;;5.10;99.90;;;;;;5052273;28;20021;-59
2021/10/26 00:18:04;;;;;;;11.32;8.23;;;5.20;99.90;;;;;;5053054;28;20061;-61
2021/10/26 00:20:31;;;;;;;11.65;8.73;;;5.20;99.90;;;;;;5052684;28;20021;-61
2021/10/26 00:22:57;;;;;;;11.82;9.35;;;5.20;99.90;;;;;;5052994;28;20028;-61
2021/10/26 00:25:23;;;;;;;15.32;8.95;;;5.10;99.90;;;;;;5052201;28;20402;-61
2021/10/26 00:27:49;;;;;;;14.88;9.63;;;5.20;99.90;;;;;;5053290;28;20033;-62
2021/10/26 00:30:15;;;;;;;14.27;9.77;;;5.20;99.90;;;;;;5052458;28;20382;-60
2021/10/26 00:32:40;;;;;;;15.80;10.93;;;5.30;99.90;;;;;;5052769;28;20559;-60
2021/10/26 00:35:07;;;;;;;15.35;10.25;;;5.30;99.90;;;;;;5052260;28;20029;-61
2021/10/26 00:37:33;;;;;;;15.93;10.50;;;5.30;99.90;;;;;;5053122;28;20044;-61
2021/10/26 00:39:58;;;;;;;16.08;9.75;;;5.30;99.90;;;;;;5053080;28;20384;-59
2021/10/26 00:42:24;;;;;;;17.13;10.32;;;5.40;99.90;;;;;;5052673;28;20116;-60
2021/10/26 00:44:50;;;;;;;12.40;9.43;;;5.30;99.90;;;;;;5052466;28;20024;-61
2021/10/26 00:47:16;;;;;;;15.88;9.02;;;5.40;99.90;;;;;;5055448;28;20104;-61
2021/10/26 00:49:41;;;;;;;15.73;10.65;;;5.40;99.90;;;;;;5053996;28;20049;-62
2021/10/26 00:52:07;;;;;;;13.27;9.85;;;5.40;99.90;;;;;;5054926;28;20456;-61
2021/10/26 00:54:34;;;;;;;11.80;8.88;;;5.50;99.90;;;;;;5053945;28;20025;-61
2021/10/26 00:57:00;;;;;;;13.88;9.02;;;5.50;99.90;;;;;;5054856;28;20017;-61
2021/10/26 00:59:26;;;;;;;10.77;8.32;;;5.60;99.90;;;;;;5052787;28;20420;-62
2021/10/26 01:01:52;;;;;;;12.07;8.35;;;5.60;99.90;;;;;;5057823;28;20422;-63
2021/10/26 01:04:18;;;;;;;11.25;8.77;;;5.60;99.90;;;;;;5050810;28;20034;-62
2021/10/26 01:06:45;;;;;;;12.43;8.50;;;5.60;99.90;;;;;;5052502;28;20024;-62
2021/10/26 01:09:11;;;;;;;14.52;8.85;;;5.60;99.90;;;;;;5052386;28;20021;-61
2021/10/26 01:11:37;;;;;;;12.23;8.55;;;5.70;99.90;;;;;;5052688;28;20028;-61
2021/10/26 01:14:04;;;;;;;14.82;9.25;;;5.60;99.90;;;;;;5052035;28;20430;-60
2021/10/26 01:16:30;;;;;;;13.65;9.48;;;5.60;99.90;;;;;;5050987;28;20036;-61
2021/10/26 01:18:57;;;;;;;13.38;9.60;;;5.50;99.90;;;;;;5052216;28;20032;-61
2021/10/26 01:21:23;;;;;;;12.88;9.60;;;5.60;99.90;;;;;;5051782;28;20471;-62
2021/10/26 01:23:49;;;;;;;15.98;10.27;;;5.70;99.90;;;;;;5052218;28;20017;-66
2021/10/26 01:26:14;;;;;;;18.08;10.73;;;5.70;99.90;;;;;;5053270;28;20017;-66
2021/10/26 01:28:40;;;;;;;15.10;10.05;;;5.70;99.90;;;;;;5052436;28;20478;-65
2021/10/26 01:31:07;;;;;;;13.98;9.25;;;5.70;99.90;;;;;;5052542;28;20441;-67
2021/10/26 01:33:32;;;;;;;14.60;10.50;;;5.60;99.90;;;;;;5051986;28;20033;-67
2021/10/26 01:35:58;;;;;;;18.33;11.38;;;5.60;99.90;;;;;;5051085;28;20029;-67
2021/10/26 01:38:25;;;;;;;15.93;10.00;;;5.70;99.90;;;;;;5050452;28;20425;-67
2021/10/26 01:40:51;;;;;;;16.40;10.07;;;5.70;99.90;;;;;;5052078;28;20025;-65
2021/10/26 01:43:17;;;;;;;16.10;9.82;;;5.70;99.90;;;;;;5052090;28;20100;-65
2021/10/26 01:45:43;;;;;;;15.70;10.13;;;5.80;99.90;;;;;;5051767;28;20040;-66
2021/10/26 01:48:08;;;;;;;14.15;9.88;;;5.80;99.90;;;;;;5052530;28;20017;-66
2021/10/26 01:50:34;;;;;;;16.83;11.55;;;5.80;99.90;;;;;;5052191;28;20090;-65
2021/10/26 01:53:00;;;;;;;16.30;10.57;;;5.90;99.90;;;;;;5052378;28;20040;-65
2021/10/26 01:55:26;;;;;;;23.48;11.48;;;5.90;99.90;;;;;;5051493;28;20025;-65
2021/10/26 01:57:52;;;;;;;17.15;10.82;;;5.80;99.90;;;;;;5052476;28;20037;-66
2021/10/26 02:00:18;;;;;;;16.55;11.07;;;5.80;99.90;;;;;;5053646;28;20033;-65
2021/10/26 02:02:46;;;;;;;19.20;10.93;;;5.80;99.90;;;;;;5052247;28;20020;-65
2021/10/26 02:05:12;;;;;;;14.40;10.85;;;5.80;99.90;;;;;;5050063;28;20017;-65
2021/10/26 02:07:38;;;;;;;19.33;11.65;;;5.80;99.90;;;;;;5052087;28;20075;-66
2021/10/26 02:10:05;;;;;;;16.50;10.60;;;5.80;99.90;;;;;;5051696;28;20024;-66
2021/10/26 02:12:31;;;;;;;13.82;10.23;;;5.80;99.90;;;;;;5051726;28;20033;-65
2021/10/26 02:14:57;;;;;;;15.65;11.05;;;5.90;99.90;;;;;;5051031;28;20021;-66
2021/10/26 02:17:23;;;;;;;17.20;11.70;;;5.90;99.90;;;;;;5051566;28;20076;-66
2021/10/26 02:19:48;;;;;;;16.70;11.43;;;5.90;99.90;;;;;;5051051;28;20028;-65
2021/10/26 02:22:14;;;;;;;13.98;10.75;;;6.00;99.90;;;;;;5051006;28;20090;-66
2021/10/26 02:24:40;;;;;;;16.40;11.27;;;6.10;99.90;;;;;;5049161;28;20021;-63
2021/10/26 02:27:06;;;;;;;16.83;10.93;;;6.10;99.90;;;;;;5050895;28;20483;-63
2021/10/26 02:29:32;;;;;;;14.57;10.68;;;6.10;99.90;;;;;;5050963;28;20040;-63
2021/10/26 02:31:58;;;;;;;14.88;10.80;;;6.20;99.90;;;;;;5050927;28;20479;-63
2021/10/26 02:34:23;;;;;;;16.35;10.77;;;6.30;99.90;;;;;;5050309;28;20479;-63
2021/10/26 02:36:49;;;;;;;15.45;10.85;;;6.40;99.90;;;;;;5050777;28;20033;-63
2021/10/26 02:39:15;;;;;;;16.27;10.43;;;6.40;99.90;;;;;;5049864;28;20025;-64
2021/10/26 02:41:41;;;;;;;16.17;10.95;;;6.30;99.90;;;;;;5051011;28;20025;-64
2021/10/26 02:44:07;;;;;;;17.77;10.10;;;6.30;99.90;;;;;;5049325;28;20379;-63
2021/10/26 02:46:33;;;;;;;15.75;10.82;;;6.30;99.90;;;;;;5050060;28;20029;-62
2021/10/26 02:48:59;;;;;;;15.05;10.48;;;6.40;99.90;;;;;;5049574;28;20036;-61
2021/10/26 02:51:24;;;;;;;14.68;11.50;;;6.30;99.90;;;;;;5050649;28;20033;-62
2021/10/26 02:53:50;;;;;;;14.75;11.15;;;6.50;99.90;;;;;;5050318;28;20032;-62
2021/10/26 02:56:16;;;;;;;16.45;11.25;;;6.50;99.90;;;;;;5050401;28;20108;-62
2021/10/26 02:58:42;;;;;;;15.13;11.02;;;6.40;99.90;;;;;;5050504;28;20083;-62
2021/10/26 03:01:10;;;;;;;18.60;11.32;;;6.50;99.90;;;;;;5050496;28;20540;-60
2021/10/26 03:03:36;;;;;;;15.38;10.52;;;6.50;99.90;;;;;;5050370;28;20112;-62
2021/10/26 03:06:02;;;;;;;14.43;10.70;;;6.60;99.90;;;;;;5049791;28;20628;-62
2021/10/26 03:08:28;;;;;;;13.40;10.55;;;6.60;99.90;;;;;;5050382;28;20028;-62
2021/10/26 03:10:54;;;;;;;19.65;11.27;;;6.60;99.90;;;;;;5050900;28;20024;-62
2021/10/26 03:13:20;;;;;;;15.38;10.73;;;6.50;99.90;;;;;;5050876;28;20079;-62
2021/10/26 03:15:46;;;;;;;14.43;11.25;;;6.60;99.90;;;;;;5050236;28;20387;-62
2021/10/26 03:18:11;;;;;;;17.23;11.52;;;6.60;99.90;;;;;;5050641;28;20033;-62
2021/10/26 03:20:38;;;;;;;16.17;10.80;;;6.50;99.90;;;;;;5050342;28;20025;-61
2021/10/26 03:23:05;;;;;;;22.80;11.57;;;6.50;99.90;;;;;;5050215;28;20021;-61
2021/10/26 03:25:31;;;;;;;14.65;11.32;;;6.50;99.90;;;;;;5048771;28;20108;-63
2021/10/26 03:27:56;;;;;;;15.50;11.40;;;6.50;99.90;;;;;;5050261;28;20594;-62
2021/10/26 03:30:22;;;;;;;14.60;11.20;;;6.40;99.90;;;;;;5050254;28;20056;-62
2021/10/26 03:32:48;;;;;;;15.02;11.43;;;6.40;99.90;;;;;;5050309;28;20082;-63
2021/10/26 03:35:14;;;;;;;15.43;11.50;;;6.40;99.90;;;;;;5050265;28;20029;-63
2021/10/26 03:37:41;;;;;;;15.18;11.00;;;6.40;99.90;;;;;;5050841;28;20021;-62
2021/10/26 03:40:08;;;;;;;16.17;12.27;;;6.40;99.90;;;;;;5053714;28;20037;-63
2021/10/26 03:42:34;;;;;;;20.80;12.07;;;6.40;99.90;;;;;;5055449;28;20028;-64
2021/10/26 03:45:00;;;;;;;15.80;11.43;;;6.40;99.90;;;;;;5053418;28;20387;-61
2021/10/26 03:47:25;;;;;;;17.38;12.07;;;6.30;99.90;;;;;;5056420;28;20418;-61
2021/10/26 03:49:51;;;;;;;14.70;11.15;;;6.40;99.90;;;;;;5054034;28;20379;-61
2021/10/26 03:52:17;;;;;;;15.27;11.90;;;6.30;99.90;;;;;;5053763;28;20024;-61
2021/10/26 03:54:43;;;;;;;15.32;11.25;;;6.40;99.90;;;;;;5052698;28;20503;-60
2021/10/26 03:57:10;;;;;;;16.83;11.68;;;6.30;99.90;;;;;;5053380;28;20107;-61
2021/10/26 03:59:38;;;;;;;18.30;11.32;;;6.40;99.90;;;;;;5053309;28;20033;-61
2021/10/26 04:02:09;;;;;;;19.45;12.80;;;6.30;99.90;;;;;;5053542;28;20113;-62
2021/10/26 04:04:36;;;;;;;17.55;11.63;;;6.30;99.90;;;;;;5052742;28;20094;-62
2021/10/26 04:07:04;;;;;;;16.15;11.77;;;6.30;99.90;;;;;;5053786;28;20446;-62
2021/10/26 04:10:15;;;;;;;17.35;12.27;;;6.30;99.90;;;;;;5053563;28;20025;-61
2021/10/26 04:12:25;;;;;;;20.10;11.60;;;6.30;99.90;;;;;;5047447;28;20441;-60
2021/10/26 04:14:52;;;;;;;;;;;6.30;99.90;;;;;;5053657;28;20380;-60
2021/10/26 04:17:19;;;;;;;19.23;12.13;;;6.20;99.90;;;;;;5053130;28;19905;-61
2021/10/26 04:19:46;;;;;;;15.55;11.65;;;6.20;99.90;;;;;;5053337;28;20013;-61
2021/10/26 04:22:13;;;;;;;21.25;12.32;;;6.20;99.90;;;;;;5052827;28;20395;-63
2021/10/26 04:24:39;;;;;;;19.58;12.77;;;6.10;99.90;;;;;;5067689;28;20479;-61
2021/10/26 04:27:04;;;;;;;17.30;12.05;;;6.20;99.90;;;;;;5052980;28;20017;-62
2021/10/26 04:29:30;;;;;;;16.92;12.30;;;6.10;99.90;;;;;;5052764;28;20586;-63
2021/10/26 04:31:56;;;;;;;19.27;12.40;;;6.20;99.90;;;;;;5052588;28;20032;-61
2021/10/26 04:34:21;;;;;;;18.23;12.60;;;6.10;99.90;;;;;;5052107;28;20068;-63
2021/10/26 04:36:47;;;;;;;15.25;11.85;;;6.20;99.90;;;;;;5052573;28;20110;-61
2021/10/26 04:39:13;;;;;;;15.73;12.15;;;6.20;99.90;;;;;;5052720;28;20033;-62
2021/10/26 04:41:39;;;;;;;19.08;12.57;;;6.20;99.90;;;;;;5049423;28;20108;-70
2021/10/26 04:44:05;;;;;;;16.90;12.18;;;6.20;99.90;;;;;;5039600;28;20022;-70
2021/10/26 04:46:32;;;;;;;19.65;12.07;;;6.20;99.90;;;;;;5039431;28;20021;-69
2021/10/26 04:48:58;;;;;;;18.00;12.80;;;6.30;99.90;;;;;;5037151;28;20009;-68
2021/10/26 04:51:23;;;;;;;14.88;12.30;;;6.30;99.90;;;;;;5044726;28;20083;-68
2021/10/26 04:53:49;;;;;;;19.75;13.18;;;6.30;99.90;;;;;;5039974;28;20026;-69
2021/10/26 04:56:14;;;;;;;18.20;12.93;;;6.30;99.90;;;;;;5045884;28;20025;-69
2021/10/26 04:58:40;;;;;;;17.20;13.00;;;6.30;99.90;;;;;;5052087;28;20053;-69
2021/10/26 05:01:06;;;;;;;20.63;12.48;;;6.40;99.90;;;;;;5051818;28;20379;-71
2021/10/26 05:03:32;;;;;;;16.98;12.45;;;6.30;99.90;;;;;;5051722;28;20035;-68
2021/10/26 05:05:58;;;;;;;19.13;13.80;;;6.40;99.90;;;;;;5051430;28;20021;-68
2021/10/26 05:08:24;;;;;;;17.70;12.25;;;6.40;99.90;;;;;;5051661;28;20071;-67
2021/10/26 05:10:50;;;;;;;16.25;12.30;;;6.30;99.90;;;;;;5051966;28;20025;-67
2021/10/26 05:13:16;;;;;;;16.20;12.63;;;6.10;99.90;;;;;;5051591;28;20082;-68
2021/10/26 05:15:42;;;;;;;20.05;13.68;;;6.30;99.90;;;;;;5050932;28;20033;-66
2021/10/26 05:18:11;;;;;;;19.02;13.70;;;6.40;99.90;;;;;;5034030;28;20031;-67
2021/10/26 05:20:37;;;;;;;21.33;13.18;;;6.40;99.90;;;;;;5051766;28;20021;-66
2021/10/26 05:23:05;;;;;;;21.20;15.77;;;6.40;99.90;;;;;;5051640;28;20036;-76
2021/10/26 05:25:31;;;;;;;18.60;13.40;;;6.40;99.90;;;;;;5050787;28;20013;-76
2021/10/26 05:27:56;;;;;;;19.35;14.00;;;6.50;99.90;;;;;;5051855;28;20036;-76
2021/10/26 05:30:22;;;;;;;19.63;14.20;;;6.50;99.90;;;;;;5047126;28;20061;-74
2021/10/26 05:32:48;;;;;;;20.15;14.63;;;6.60;99.90;;;;;;5031589;28;20064;-74
2021/10/26 05:35:13;;;;;;;20.63;14.13;;;6.60;99.90;;;;;;5031100;28;20026;-74
2021/10/26 05:37:39;;;;;;;21.13;12.93;;;6.60;99.90;;;;;;5039569;28;20382;-73
2021/10/26 05:40:06;;;;;;;17.40;13.35;;;6.70;99.90;;;;;;5051224;28;20104;-66
2021/10/26 05:42:32;;;;;;;19.52;14.23;;;6.70;99.90;;;;;;5050741;28;20029;-65
2021/10/26 05:44:58;;;;;;;19.67;13.05;;;6.70;99.90;;;;;;5050204;28;20056;-70
2021/10/26 05:47:24;;;;;;;20.00;13.57;;;6.70;99.90;;;;;;5051326;28;20463;-70
2021/10/26 05:49:49;;;;;;;19.52;13.30;;;6.70;99.90;;;;;;5051237;28;20032;-71
2021/10/26 05:52:15;;;;;;;22.48;17.17;;;6.70;99.90;;;;;;5051289;28;20028;-70
2021/10/26 05:54:41;;;;;;;22.05;15.02;;;6.70;99.90;;;;;;5050909;28;20067;-70
2021/10/26 05:57:06;;;;;;;22.00;14.60;;;6.70;99.90;;;;;;5051356;28;20017;-71
2021/10/26 05:59:32;;;;;;;20.67;15.02;;;6.80;99.90;;;;;;5050789;28;20037;-71
2021/10/26 06:01:57;;;;;;;20.92;14.40;;;6.80;99.90;;;;;;5050600;28;20029;-70
2021/10/26 06:04:24;;;;;;;22.30;15.80;;;6.80;99.90;;;;;;5050093;28;20017;-71
2021/10/26 06:06:50;;;;;;;20.42;15.55;;;6.80;99.90;;;;;;5050859;28;20040;-69
2021/10/26 06:09:17;;;;;;;20.45;15.05;;;6.80;99.90;;;;;;5050916;28;20056;-69
2021/10/26 06:11:46;;;;;;;21.05;14.25;;;6.80;99.90;;;;;;5050644;28;20039;-70
2021/10/26 06:14:12;;;;;;;24.77;15.82;;;6.80;99.90;;;;;;5050644;28;20109;-68
2021/10/26 06:16:39;;;;;;;19.63;14.50;;;6.90;99.90;;;;;;5037081;28;20104;-70
2021/10/26 06:19:05;;;;;;;20.13;13.63;;;6.90;99.90;;;;;;5033032;28;20082;-70
2021/10/26 06:21:31;;;;;;;19.27;13.80;;;6.90;99.90;;;;;;5036341;28;20440;-70
2021/10/26 06:23:57;;;;;;;17.05;13.50;;;6.90;99.90;;;;;;5031291;28;20029;-70
2021/10/26 06:26:23;;;;;;;19.38;14.02;;;6.90;99.90;;;;;;5028975;28;20040;-69
2021/10/26 06:28:49;;;;;;;19.65;14.40;;;7.00;99.90;;;;;;5049440;28;20017;-68
2021/10/26 06:31:16;;;;;;;23.40;15.07;;;7.00;99.90;;;;;;5050544;28;20120;-69
2021/10/26 06:33:41;;;;;;;20.38;15.10;;;7.10;99.90;;;;;;5050286;28;20119;-70
2021/10/26 06:36:09;;;;;;;20.83;15.95;;;7.10;99.90;;;;;;5049750;28;20108;-71
2021/10/26 06:38:35;;;;;;;23.83;15.13;;;7.10;99.90;;;;;;5034480;28;20053;-69
2021/10/26 06:41:03;;;;;;;24.92;16.23;;;7.10;99.90;;;;;;5043938;28;20044;-63
2021/10/26 06:43:29;;;;;;;24.30;15.52;;;7.10;99.90;;;;;;5050912;28;20071;-62
2021/10/26 06:45:54;;;;;;;19.98;14.73;;;7.20;99.90;;;;;;5050083;28;20026;-62
2021/10/26 06:48:22;;;;;;;23.20;15.98;;;7.20;99.90;;;;;;5050713;28;20620;-65
2021/10/26 06:50:48;;;;;;;23.05;15.40;;;7.20;99.90;;;;;;5050356;28;20013;-64
2021/10/26 06:53:14;;;;;;;21.50;16.33;;;7.20;99.90;;;;;;5047168;28;20021;-64
2021/10/26 06:55:40;;;;;;;32.13;24.13;;;7.20;99.90;;;;;;5049559;28;20029;-64
2021/10/26 06:58:05;;;;;;;40.20;27.10;;;7.30;99.90;;;;;;5032527;28;20028;-64
2021/10/26 07:00:31;;;;;;;39.78;27.67;;;7.30;99.90;;;;;;5050240;28;20155;-64
2021/10/26 07:02:57;;;;;;;39.53;28.17;;;7.40;99.90;;;;;;5050213;28;20414;-63
2021/10/26 07:05:25;;;;;;;32.03;20.27;;;7.40;99.90;;;;;;5049939;28;20178;-63
2021/10/26 07:07:51;;;;;;;26.30;17.05;;;7.40;99.90;;;;;;5050342;28;20490;-64
2021/10/26 07:10:19;;;;;;;52.85;33.13;;;7.40;99.90;;;;;;5050189;28;20056;-64
2021/10/26 07:12:45;;;;;;;46.35;31.48;;;7.40;99.90;;;;;;5048648;28;20027;-62
2021/10/26 07:15:13;;;;;;;42.65;28.65;;;7.40;99.90;;;;;;5053135;28;20025;-65
2021/10/26 07:17:41;;;;;;;32.55;21.63;;;7.40;99.90;;;;;;5054309;28;20051;-63
2021/10/26 07:20:10;;;;;;;28.45;19.00;;;7.50;99.90;;;;;;5053442;28;20052;-64
2021/10/26 07:22:37;;;;;;;28.52;19.80;;;7.50;99.90;;;;;;5053798;28;20025;-63
2021/10/26 07:25:09;;;;;;;31.67;18.92;;;7.70;99.90;;;;;;5053280;28;20100;-62
2021/10/26 07:27:39;;;;;;;27.92;18.85;;;7.80;99.90;;;;;;5053863;28;20079;-63
2021/10/26 07:30:08;;;;;;;39.85;27.30;;;7.80;99.90;;;;;;5054110;28;20029;-63
2021/10/26 07:32:34;;;;;;;30.30;21.42;;;7.90;99.90;;;;;;5053375;28;20033;-64
2021/10/26 07:35:00;;;;;;;26.38;17.30;;;8.10;99.90;;;;;;5053165;28;20044;-63
2021/10/26 07:37:33;;;;;;;22.60;15.38;;;8.40;99.90;;;;;;5051259;28;20514;-64
2021/10/26 07:39:59;;;;;;;22.65;14.32;;;8.70;99.90;;;;;;5033839;28;20029;-61
2021/10/26 07:42:25;;;;;;;19.13;13.68;;;9.10;99.90;;;;;;5033457;28;20026;-63
2021/10/26 07:44:52;;;;;;;18.92;12.30;;;10.30;99.90;;;;;;5032955;28;20140;-63
2021/10/26 07:47:20;;;;;;;17.33;11.55;;;11.30;99.90;;;;;;5033408;28;20389;-63
2021/10/26 07:49:48;;;;;;;15.95;11.02;;;11.70;99.90;;;;;;5041287;28;20040;-63
2021/10/26 07:52:15;;;;;;;13.50;10.40;;;11.40;99.90;;;;;;5053769;28;20017;-62
2021/10/26 07:54:41;;;;;;;19.08;11.55;;;11.00;99.90;;;;;;5052724;28;20025;-65
2021/10/26 07:57:07;;;;;;;17.70;11.43;;;10.50;99.90;;;;;;5053328;28;20021;-63
2021/10/26 07:59:33;;;;;;;15.55;11.13;;;10.20;99.90;;;;;;5053346;28;20072;-62
2021/10/26 08:01:58;;;;;;;15.85;11.48;;;9.90;99.90;;;;;;5053525;28;20063;-62
2021/10/26 08:04:24;;;;;;;15.18;11.15;;;9.70;99.90;;;;;;5052353;28;20021;-63
2021/10/26 08:06:50;;;;;;;16.58;11.05;;;9.60;99.90;;;;;;5053350;28;20013;-63
2021/10/26 08:09:18;;;;;;;17.52;12.00;;;9.50;99.90;;;;;;5053580;28;20021;-62
2021/10/26 08:11:44;;;;;;;15.90;11.50;;;9.60;99.90;;;;;;5052931;28;20025;-63
2021/10/26 08:14:10;;;;;;;17.63;11.55;;;9.60;99.90;;;;;;5053075;28;20049;-63
2021/10/26 08:16:36;;;;;;;14.15;11.25;;;9.70;99.90;;;;;;5052490;28;20052;-63
2021/10/26 08:19:03;;;;;;;13.52;10.80;;;9.70;99.90;;;;;;5052640;28;20640;-62
2021/10/26 08:21:29;;;;;;;13.80;10.88;;;9.90;99.90;;;;;;5053025;28;20051;-63
2021/10/26 08:23:56;;;;;;;14.55;10.68;;;9.90;99.90;;;;;;5052700;28;20487;-63
2021/10/26 08:26:33;;;;;;;16.02;10.85;;;10.00;99.90;;;;;;5052412;28;20128;-63
2021/10/26 08:29:37;;;;;;;18.02;11.45;;;10.10;99.90;;;;;;5053058;28;20025;-63
2021/10/26 08:37:10;;;;;;;16.65;11.60;;;10.80;99.90;;;;;;5052854;28;20033;-63
2021/10/26 08:39:37;;;;;;;19.77;11.13;;;10.80;99.90;;;;;;5052510;28;20033;-63
2021/10/26 08:42:05;;;;;;;17.48;9.73;;;11.10;99.90;;;;;;5052171;28;20035;-62
2021/10/26 08:44:31;;;;;;;13.52;8.82;;;13.30;99.90;;;;;;5050797;28;20034;-61
2021/10/26 08:46:58;;;;;;;19.55;9.05;;;15.80;99.90;;;;;;5033889;28;20017;-63
2021/10/26 08:49:25;;;;;;;13.50;9.23;;;17.50;99.90;;;;;;5035231;28;20192;-63
2021/10/26 08:51:52;;;;;;;11.65;8.13;;;17.50;99.90;;;;;;5032397;28;20027;-63
2021/10/26 08:54:19;;;;;;;16.58;8.48;;;16.60;99.90;;;;;;5031499;28;20076;-64
2021/10/26 08:56:47;;;;;;;11.20;8.20;;;16.10;99.90;;;;;;5031837;28;20030;-63
2021/10/26 08:59:18;;;;;;;10.48;8.50;;;16.30;99.90;;;;;;5031958;28;20041;-63
2021/10/26 09:01:46;;;;;;;10.93;8.27;;;16.00;99.90;;;;;;5031981;28;20104;-63
2021/10/26 09:04:12;;;;;;;11.20;8.60;;;16.10;99.90;;;;;;5032164;28;20113;-62
2021/10/26 09:06:47;;;;;;;14.45;8.35;;;16.20;99.90;;;;;;5031495;28;20468;-63
2021/10/26 09:09:36;;;;;;;15.30;8.57;;;15.80;99.90;;;;;;5032281;28;20032;-63
2021/10/26 09:18:00;;;;;;;16.77;8.32;;;14.30;99.90;;;;;;5031807;28;20442;-63
2021/10/26 09:20:31;;;;;;;11.02;8.85;;;14.10;99.90;;;;;;5046045;28;20029;-63
2021/10/26 09:22:59;;;;;;;9.98;7.88;;;14.30;99.90;;;;;;5053177;28;20028;-63
2021/10/26 09:25:40;;;;;;;12.32;8.80;;;14.30;99.90;;;;;;5051191;28;20072;-63
2021/10/26 09:28:17;;;;;;;10.68;8.40;;;14.40;99.90;;;;;;5051637;28;20028;-64
2021/10/26 09:30:57;;;;;;;12.40;7.80;;;14.50;99.90;;;;;;5052132;28;20037;-63
2021/10/26 09:33:32;;;;;;;18.35;12.48;;;14.50;99.90;;;;;;5052998;28;20798;-63
2021/10/26 09:36:20;;;;;;;10.57;7.80;;;14.50;99.90;;;;;;5051140;28;20475;-63
2021/10/26 09:38:45;;;;;;;15.65;7.50;;;14.60;99.90;;;;;;5052144;28;20372;-61
2021/10/26 09:41:11;;;;;;;11.18;6.70;;;14.70;99.90;;;;;;5051711;28;20028;-62
2021/10/26 09:43:37;;;;;;;9.70;7.25;;;15.00;99.90;;;;;;5051549;28;20391;-63
2021/10/26 09:46:03;;;;;;;9.90;8.18;;;15.20;99.90;;;;;;5051302;28;20032;-64
2021/10/26 09:48:34;;;;;;;10.18;6.55;;;15.40;99.90;;;;;;5051308;28;20132;-64
2021/10/26 09:51:08;;;;;;;11.20;6.60;;;15.40;99.90;;;;;;5051526;28;20025;-64
2021/10/26 09:53:35;;;;;;;10.63;6.28;;;16.90;99.90;;;;;;5051546;28;20557;-64
2021/10/26 09:56:03;;;;;;;8.18;5.55;;;18.30;99.90;;;;;;5050768;28;20064;-63
2021/10/26 09:58:29;;;;;;;9.55;6.03;;;19.60;99.90;;;;;;5051093;28;20035;-64
2021/10/26 10:01:10;;;;;;;7.85;4.93;;;19.30;99.90;;;;;;5050100;28;20039;-65
2021/10/26 10:03:35;;;;;;;8.90;5.05;;;20.40;99.90;;;;;;5050765;28;20025;-64
2021/10/26 10:06:05;;;;;;;7.05;4.88;;;20.80;99.90;;;;;;5050482;28;20025;-64
2021/10/26 10:08:33;;;;;;;10.32;5.28;;;20.20;99.90;;;;;;5050920;28;20075;-65
2021/10/26 10:11:09;;;;;;;7.78;5.10;;;19.10;99.90;;;;;;5050869;28;20020;-64
2021/10/26 10:13:39;;;;;;;9.73;5.18;;;18.30;99.90;;;;;;5050874;28;20025;-64
2021/10/26 10:16:10;;;;;;;7.57;5.18;;;17.10;99.90;;;;;;5050499;28;20029;-64
2021/10/26 10:18:36;;;;;;;12.55;5.82;;;17.00;99.90;;;;;;5051660;28;20028;-64
2021/10/26 10:21:03;;;;;;;7.82;4.65;;;16.50;99.90;;;;;;5051257;28;20471;-65
2021/10/26 10:23:31;;;;;;;6.78;4.72;;;16.60;99.90;;;;;;5051011;28;20029;-64
2021/10/26 10:25:57;;;;;;;8.93;5.57;;;16.70;99.90;;;;;;5049806;28;20025;-63
2021/10/26 10:28:30;;;;;;;16.27;7.93;;;16.40;99.90;;;;;;5050347;28;20490;-64
2021/10/26 10:31:02;;;;;;;6.00;4.47;;;16.70;99.90;;;;;;5051334;28;20446;-64
2021/10/26 10:33:28;;;;;;;8.85;5.32;;;17.10;99.90;;;;;;5051038;28;20062;-64
2021/10/26 10:35:58;;;;;;;7.10;4.20;;;17.20;99.90;;;;;;5050198;28;20033;-64
2021/10/26 10:38:34;;;;;;;6.00;4.70;;;17.30;99.90;;;;;;5050343;28;20029;-64
2021/10/26 10:41:23;;;;;;;6.65;4.20;;;17.50;99.90;;;;;;5050648;28;20104;-64
2021/10/26 10:43:50;;;;;;;6.28;3.83;;;17.60;99.90;;;;;;5040490;28;20014;-64
2021/10/26 10:46:37;;;;;;;5.65;3.75;;;17.20;99.90;;;;;;5027901;28;20029;-64
2021/10/26 10:49:24;;;;;;;10.60;4.03;;;16.80;99.90;;;;;;5031844;28;20018;-64
2021/10/26 10:52:02;;;;;;;4.15;3.47;;;17.60;99.90;;;;;;5039371;28;20021;-64
2021/10/26 10:54:54;;;;;;;4.55;2.80;;;19.10;99.90;;;;;;5043271;28;20029;-65
2021/10/26 10:57:33;;;;;;;6.55;2.97;;;19.50;99.90;;;;;;5044903;28;20025;-63
2021/10/26 11:00:16;;;;;;;6.20;2.85;;;18.90;99.90;;;;;;5042763;28;20097;-64
2021/10/26 11:02:46;;;;;;;2.78;2.20;;;18.40;99.90;;;;;;5048919;28;20078;-63
2021/10/26 11:05:32;;;;;;;4.32;2.17;;;18.30;99.90;;;;;;5053702;28;20017;-63
2021/10/26 11:08:11;;;;;;;3.60;2.03;;;18.00;99.90;;;;;;5054138;28;20025;-64
2021/10/26 11:10:49;;;;;;;5.10;2.35;;;18.10;99.90;;;;;;5054247;28;20033;-63
2021/10/26 11:13:20;;;;;;;3.67;1.70;;;18.30;99.90;;;;;;5054393;28;20576;-63
2021/10/26 11:15:48;;;;;;;3.63;2.20;;;19.10;99.90;;;;;;5051987;28;20028;-64
2021/10/26 11:18:32;;;;;;;3.47;2.00;;;19.60;99.90;;;;;;5053692;28;20100;-66
2021/10/26 11:21:00;;;;;;;3.65;1.92;;;19.10;99.90;;;;;;5054648;28;20037;-64
2021/10/26 11:23:35;;;;;;;2.10;1.70;;;19.10;99.90;;;;;;5053957;28;20543;-63
2021/10/26 11:26:05;;;;;;;7.50;2.30;;;19.20;99.90;;;;;;5052791;28;20035;-64
2021/10/26 11:28:30;;;;;;;4.30;1.65;;;19.40;99.90;;;;;;5053514;28;20104;-64
2021/10/26 11:31:00;;;;;;;5.93;1.73;;;19.40;99.90;;;;;;5035187;28;20096;-64
2021/10/26 11:33:25;;;;;;;1.98;1.70;;;19.60;99.90;;;;;;5033732;28;20136;-65
2021/10/26 11:36:02;;;;;;;1.70;1.50;;;19.40;99.90;;;;;;5033574;28;20605;-65
2021/10/26 11:38:30;;;;;;;4.68;1.77;;;19.50;99.90;;;;;;5034492;28;20116;-65
2021/10/26 11:41:04;;;;;;;2.55;1.83;;;19.70;99.90;;;;;;5034052;28;20022;-65
2021/10/26 11:43:48;;;;;;;4.88;1.48;;;19.20;99.90;;;;;;5033645;28;20022;-65
2021/10/26 11:46:25;;;;;;;2.20;1.60;;;18.50;99.90;;;;;;5033222;28;20104;-64
2021/10/26 11:49:08;;;;;;;3.78;1.30;;;18.20;99.90;;;;;;5033757;28;20037;-65
2021/10/26 11:51:42;;;;;;;2.05;1.63;;;18.10;99.90;;;;;;5033511;28;20060;-64
2021/10/26 11:54:20;;;;;;;2.58;1.60;;;18.20;99.90;;;;;;5033721;28;20060;-65
2021/10/26 11:56:50;;;;;;;2.78;1.85;;;18.60;99.90;;;;;;5047880;28;20036;-65
2021/10/26 11:59:16;;;;;;;3.90;1.60;;;18.60;99.90;;;;;;5052717;28;20072;-65
2021/10/26 12:02:09;;;;;;;7.88;1.73;;;18.60;99.90;;;;;;5033301;28;20108;-65
2021/10/26 12:04:42;;;;;;;1.23;1.13;;;18.40;99.90;;;;;;5028816;28;20037;-65
2021/10/26 12:07:10;;;;;;;3.08;1.48;;;17.90;99.90;;;;;;5033495;28;20022;-65
2021/10/26 12:09:41;;;;;;;4.32;1.65;;;17.80;99.90;;;;;;5033266;28;20025;-63
2021/10/26 12:12:07;;;;;;;3.63;1.30;;;17.50;99.90;;;;;;5033188;28;20022;-64
2021/10/26 12:14:34;;;;;;;3.70;1.38;;;17.10;99.90;;;;;;5032708;28;20167;-65
2021/10/26 12:17:13;;;;;;;1.52;1.10;;;17.00;99.90;;;;;;5041489;28;20498;-65
2021/10/26 12:19:51;;;;;;;2.60;1.13;;;16.90;99.90;;;;;;5034716;28;20029;-65
2021/10/26 12:22:25;;;;;;;3.63;1.05;;;17.00;99.90;;;;;;5033714;28;20025;-64
2021/10/26 12:25:09;;;;;;;2.95;1.20;;;17.00;99.90;;;;;;5032715;28;20439;-65
2021/10/26 12:27:36;;;;;;;4.57;1.30;;;17.10;99.90;;;;;;5032927;28;20498;-65
2021/10/26 12:30:14;;;;;;;2.70;1.10;;;17.20;99.90;;;;;;5015293;28;20368;-65
2021/10/26 12:32:50;;;;;;;2.05;1.23;;;17.20;99.90;;;;;;5032691;28;20034;-65
2021/10/26 12:35:16;;;;;;;2.08;1.40;;;17.40;99.90;;;;;;5032084;28;20057;-65
2021/10/26 12:37:42;;;;;;;3.35;1.10;;;17.40;99.90;;;;;;5032826;28;20029;-65
2021/10/26 12:40:19;;;;;;;5.15;1.15;;;17.70;99.90;;;;;;5034895;28;20067;-73
2021/10/26 12:42:58;;;;;;;2.30;1.20;;;17.60;99.90;;;;;;5037965;28;20029;-73
2021/10/26 12:45:35;;;;;;;3.60;1.17;;;17.50;99.90;;;;;;5049196;28;20028;-73
2021/10/26 12:48:09;;;;;;;4.05;1.30;;;17.60;99.90;;;;;;5032720;28;20025;-72
2021/10/26 12:50:45;;;;;;;7.10;1.40;;;17.80;99.90;;;;;;5032538;28;20022;-72
2021/10/26 12:53:21;;;;;;;3.65;1.10;;;18.00;99.90;;;;;;5022900;28;20025;-72
2021/10/26 12:55:49;;;;;;;22.05;2.45;;;18.10;99.90;;;;;;5044857;28;20017;-73
2021/10/26 12:58:33;;;;;;;3.90;1.35;;;18.20;99.90;;;;;;5043914;28;20017;-73